sensor_id;sensor_type;location;lat;lon;timestamp;P1;durP1;ratioP1;P2;durP2;ratioP2
6376;SDS011;3221;48.858;10.128;2022-12-29T00:02:15;2.73;;;2.27;;
6376;SDS011;3221;48.858;10.128;2022-12-29T00:04:43;2.57;;;2.20;;
6376;SDS011;3221;48.858;10.128;2022-12-29T00:07:10;2.70;;;2.10;;
6376;SDS011;3221;48.858;10.128;2022-12-29T00:09:37;3.13;;;2.00;;
6376;SDS011;3221;48.858;10.128;2022-12-29T00:12:04;2.50;;;2.00;;
6376;SDS011;3221;48.858;10.128;2022-12-29T00:14:31;4.20;;;2.07;;
6376;SDS011;3221;48.858;10.128;2022-12-29T00:17:16;3.20;;;2.07;;
6376;SDS011;3221;48.858;10.128;2022-12-29T00:19:44;2.90;;;2.00;;
6376;SDS011;3221;48.858;10.128;2022-12-29T00:22:29;2.70;;;2.07;;
6376;SDS011;3221;48.858;10.128;2022-12-29T00:25:14;3.47;;;2.17;;
6376;SDS011;3221;48.858;10.128;2022-12-29T00:28:00;4.17;;;2.30;;
6376;SDS011;3221;48.858;10.128;2022-12-29T00:30:45;4.93;;;2.40;;
6376;SDS011;3221;48.858;10.128;2022-12-29T00:33:31;3.30;;;2.00;;
6376;SDS011;3221;48.858;10.128;2022-12-29T00:36:19;3.40;;;2.00;;
6376;SDS011;3221;48.858;10.128;2022-12-29T00:38:59;2.23;;;1.80;;
6376;SDS011;3221;48.858;10.128;2022-12-29T00:41:54;1.97;;;1.70;;
6376;SDS011;3221;48.858;10.128;2022-12-29T00:44:40;3.60;;;1.90;;
6376;SDS011;3221;48.858;10.128;2022-12-29T00:47:08;3.53;;;1.80;;
6376;SDS011;3221;48.858;10.128;2022-12-29T00:49:35;2.10;;;1.90;;
6376;SDS011;3221;48.858;10.128;2022-12-29T00:52:05;2.00;;;1.80;;
6376;SDS011;3221;48.858;10.128;2022-12-29T00:54:35;3.00;;;2.00;;
6376;SDS011;3221;48.858;10.128;2022-12-29T00:57:05;2.00;;;1.80;;
6376;SDS011;3221;48.858;10.128;2022-12-29T00:59:36;2.03;;;1.77;;
6376;SDS011;3221;48.858;10.128;2022-12-29T01:02:04;2.73;;;1.90;;
6376;SDS011;3221;48.858;10.128;2022-12-29T01:04:32;2.73;;;1.70;;
6376;SDS011;3221;48.858;10.128;2022-12-29T01:06:59;2.07;;;1.80;;
6376;SDS011;3221;48.858;10.128;2022-12-29T01:09:26;2.23;;;2.00;;
6376;SDS011;3221;48.858;10.128;2022-12-29T01:12:12;2.87;;;1.83;;
6376;SDS011;3221;48.858;10.128;2022-12-29T01:14:40;2.67;;;1.97;;
6376;SDS011;3221;48.858;10.128;2022-12-29T01:17:07;3.30;;;1.70;;
6376;SDS011;3221;48.858;10.128;2022-12-29T01:19:34;2.40;;;1.90;;
6376;SDS011;3221;48.858;10.128;2022-12-29T01:22:01;4.00;;;1.50;;
6376;SDS011;3221;48.858;10.128;2022-12-29T01:24:27;3.33;;;1.70;;
6376;SDS011;3221;48.858;10.128;2022-12-29T01:26:54;2.77;;;1.80;;
6376;SDS011;3221;48.858;10.128;2022-12-29T01:29:21;1.87;;;1.73;;
6376;SDS011;3221;48.858;10.128;2022-12-29T01:31:48;2.37;;;1.70;;
6376;SDS011;3221;48.858;10.128;2022-12-29T01:34:16;3.20;;;1.83;;
6376;SDS011;3221;48.858;10.128;2022-12-29T01:36:44;2.30;;;1.57;;
6376;SDS011;3221;48.858;10.128;2022-12-29T01:39:11;3.43;;;1.90;;
6376;SDS011;3221;48.858;10.128;2022-12-29T01:41:39;3.63;;;1.83;;
6376;SDS011;3221;48.858;10.128;2022-12-29T01:47:20;1.90;;;1.67;;
6376;SDS011;3221;48.858;10.128;2022-12-29T01:49:52;4.13;;;2.00;;
6376;SDS011;3221;48.858;10.128;2022-12-29T01:52:22;2.63;;;2.17;;
6376;SDS011;3221;48.858;10.128;2022-12-29T01:54:51;2.50;;;1.70;;
6376;SDS011;3221;48.858;10.128;2022-12-29T01:57:23;2.17;;;1.53;;
6376;SDS011;3221;48.858;10.128;2022-12-29T01:59:57;3.67;;;1.90;;
6376;SDS011;3221;48.858;10.128;2022-12-29T02:02:37;3.20;;;1.70;;
6376;SDS011;3221;48.858;10.128;2022-12-29T02:05:09;3.47;;;1.70;;
6376;SDS011;3221;48.858;10.128;2022-12-29T02:07:43;2.40;;;1.67;;
6376;SDS011;3221;48.858;10.128;2022-12-29T02:10:12;2.37;;;1.90;;
6376;SDS011;3221;48.858;10.128;2022-12-29T02:12:40;2.60;;;1.83;;
6376;SDS011;3221;48.858;10.128;2022-12-29T02:15:07;2.90;;;1.70;;
6376;SDS011;3221;48.858;10.128;2022-12-29T02:25:40;1.77;;;1.67;;
6376;SDS011;3221;48.858;10.128;2022-12-29T02:31:31;4.27;;;1.90;;
6376;SDS011;3221;48.858;10.128;2022-12-29T02:50:08;2.53;;;1.60;;
6376;SDS011;3221;48.858;10.128;2022-12-29T02:52:47;3.17;;;1.90;;
6376;SDS011;3221;48.858;10.128;2022-12-29T02:55:24;2.73;;;2.10;;
6376;SDS011;3221;48.858;10.128;2022-12-29T03:09:14;1.60;;;1.50;;
6376;SDS011;3221;48.858;10.128;2022-12-29T03:12:07;2.57;;;1.70;;
6376;SDS011;3221;48.858;10.128;2022-12-29T03:17:58;2.03;;;1.63;;
6376;SDS011;3221;48.858;10.128;2022-12-29T03:20:39;2.37;;;1.93;;
6376;SDS011;3221;48.858;10.128;2022-12-29T03:23:15;2.53;;;1.90;;
6376;SDS011;3221;48.858;10.128;2022-12-29T03:25:47;2.77;;;1.87;;
6376;SDS011;3221;48.858;10.128;2022-12-29T03:28:23;2.70;;;1.70;;
6376;SDS011;3221;48.858;10.128;2022-12-29T03:30:54;2.53;;;1.90;;
6376;SDS011;3221;48.858;10.128;2022-12-29T03:33:25;4.50;;;1.83;;
6376;SDS011;3221;48.858;10.128;2022-12-29T03:35:58;2.30;;;1.93;;
6376;SDS011;3221;48.858;10.128;2022-12-29T03:38:31;3.87;;;1.90;;
6376;SDS011;3221;48.858;10.128;2022-12-29T03:41:04;3.27;;;2.00;;
6376;SDS011;3221;48.858;10.128;2022-12-29T03:43:34;3.27;;;2.10;;
6376;SDS011;3221;48.858;10.128;2022-12-29T03:46:01;2.30;;;1.80;;
6376;SDS011;3221;48.858;10.128;2022-12-29T03:48:28;2.87;;;2.10;;
6376;SDS011;3221;48.858;10.128;2022-12-29T03:50:55;3.17;;;1.70;;
6376;SDS011;3221;48.858;10.128;2022-12-29T03:53:22;2.47;;;1.83;;
6376;SDS011;3221;48.858;10.128;2022-12-29T03:55:49;2.00;;;1.70;;
6376;SDS011;3221;48.858;10.128;2022-12-29T03:58:16;6.03;;;1.80;;
6376;SDS011;3221;48.858;10.128;2022-12-29T04:01:03;3.00;;;1.90;;
6376;SDS011;3221;48.858;10.128;2022-12-29T04:03:34;2.07;;;1.83;;
6376;SDS011;3221;48.858;10.128;2022-12-29T04:06:03;6.10;;;2.13;;
6376;SDS011;3221;48.858;10.128;2022-12-29T04:08:37;2.60;;;1.87;;
6376;SDS011;3221;48.858;10.128;2022-12-29T04:11:05;2.83;;;2.00;;
6376;SDS011;3221;48.858;10.128;2022-12-29T04:13:32;3.67;;;1.67;;
6376;SDS011;3221;48.858;10.128;2022-12-29T04:16:00;2.27;;;1.80;;
6376;SDS011;3221;48.858;10.128;2022-12-29T04:18:27;4.17;;;1.80;;
6376;SDS011;3221;48.858;10.128;2022-12-29T04:20:54;2.10;;;1.80;;
6376;SDS011;3221;48.858;10.128;2022-12-29T04:23:29;1.83;;;1.70;;
6376;SDS011;3221;48.858;10.128;2022-12-29T04:25:57;2.03;;;1.80;;
6376;SDS011;3221;48.858;10.128;2022-12-29T04:28:26;3.17;;;1.70;;
6376;SDS011;3221;48.858;10.128;2022-12-29T04:30:56;2.33;;;1.60;;
6376;SDS011;3221;48.858;10.128;2022-12-29T04:33:28;2.57;;;1.80;;
6376;SDS011;3221;48.858;10.128;2022-12-29T04:35:56;2.77;;;1.77;;
6376;SDS011;3221;48.858;10.128;2022-12-29T04:38:24;3.10;;;1.87;;
6376;SDS011;3221;48.858;10.128;2022-12-29T04:40:51;2.40;;;1.77;;
6376;SDS011;3221;48.858;10.128;2022-12-29T04:43:21;2.60;;;1.60;;
6376;SDS011;3221;48.858;10.128;2022-12-29T04:46:06;2.77;;;1.80;;
6376;SDS011;3221;48.858;10.128;2022-12-29T04:48:45;2.60;;;1.70;;
6376;SDS011;3221;48.858;10.128;2022-12-29T04:51:32;2.23;;;1.87;;
6376;SDS011;3221;48.858;10.128;2022-12-29T04:53:59;2.40;;;1.97;;
6376;SDS011;3221;48.858;10.128;2022-12-29T04:56:27;1.90;;;1.70;;
6376;SDS011;3221;48.858;10.128;2022-12-29T04:58:54;4.83;;;2.20;;
6376;SDS011;3221;48.858;10.128;2022-12-29T05:01:21;2.53;;;2.00;;
6376;SDS011;3221;48.858;10.128;2022-12-29T05:03:49;1.93;;;1.80;;
6376;SDS011;3221;48.858;10.128;2022-12-29T05:06:17;3.20;;;1.53;;
6376;SDS011;3221;48.858;10.128;2022-12-29T05:08:44;2.03;;;1.73;;
6376;SDS011;3221;48.858;10.128;2022-12-29T05:11:11;2.77;;;1.67;;
6376;SDS011;3221;48.858;10.128;2022-12-29T05:13:38;5.97;;;2.10;;
6376;SDS011;3221;48.858;10.128;2022-12-29T05:16:07;1.97;;;1.77;;
6376;SDS011;3221;48.858;10.128;2022-12-29T05:18:34;2.97;;;2.13;;
6376;SDS011;3221;48.858;10.128;2022-12-29T05:21:02;2.73;;;1.90;;
6376;SDS011;3221;48.858;10.128;2022-12-29T05:23:29;3.07;;;2.33;;
6376;SDS011;3221;48.858;10.128;2022-12-29T05:26:00;2.30;;;1.87;;
6376;SDS011;3221;48.858;10.128;2022-12-29T05:28:32;2.67;;;2.10;;
6376;SDS011;3221;48.858;10.128;2022-12-29T05:31:06;2.67;;;1.97;;
6376;SDS011;3221;48.858;10.128;2022-12-29T05:33:33;3.43;;;1.90;;
6376;SDS011;3221;48.858;10.128;2022-12-29T05:36:05;2.23;;;1.73;;
6376;SDS011;3221;48.858;10.128;2022-12-29T05:38:36;2.20;;;2.00;;
6376;SDS011;3221;48.858;10.128;2022-12-29T05:41:03;2.20;;;2.00;;
6376;SDS011;3221;48.858;10.128;2022-12-29T05:43:48;2.50;;;1.83;;
6376;SDS011;3221;48.858;10.128;2022-12-29T05:46:38;2.80;;;2.00;;
6376;SDS011;3221;48.858;10.128;2022-12-29T05:49:15;4.10;;;1.90;;
6376;SDS011;3221;48.858;10.128;2022-12-29T05:52:05;2.57;;;1.63;;
6376;SDS011;3221;48.858;10.128;2022-12-29T05:54:33;5.63;;;1.80;;
6376;SDS011;3221;48.858;10.128;2022-12-29T05:57:05;2.43;;;1.73;;
6376;SDS011;3221;48.858;10.128;2022-12-29T05:59:33;2.57;;;1.93;;
6376;SDS011;3221;48.858;10.128;2022-12-29T06:02:00;2.67;;;1.73;;
6376;SDS011;3221;48.858;10.128;2022-12-29T06:04:27;2.20;;;1.57;;
6376;SDS011;3221;48.858;10.128;2022-12-29T06:06:54;2.90;;;1.53;;
6376;SDS011;3221;48.858;10.128;2022-12-29T06:09:38;1.87;;;1.50;;
6376;SDS011;3221;48.858;10.128;2022-12-29T06:12:05;2.77;;;1.70;;
6376;SDS011;3221;48.858;10.128;2022-12-29T06:14:33;3.73;;;1.70;;
6376;SDS011;3221;48.858;10.128;2022-12-29T06:17:02;3.10;;;1.50;;
6376;SDS011;3221;48.858;10.128;2022-12-29T06:19:29;2.03;;;1.70;;
6376;SDS011;3221;48.858;10.128;2022-12-29T06:21:55;3.27;;;1.90;;
6376;SDS011;3221;48.858;10.128;2022-12-29T06:24:22;1.87;;;1.77;;
6376;SDS011;3221;48.858;10.128;2022-12-29T06:26:49;2.67;;;1.60;;
6376;SDS011;3221;48.858;10.128;2022-12-29T06:29:16;3.83;;;1.90;;
6376;SDS011;3221;48.858;10.128;2022-12-29T06:31:44;2.00;;;1.73;;
6376;SDS011;3221;48.858;10.128;2022-12-29T06:34:15;1.90;;;1.70;;
6376;SDS011;3221;48.858;10.128;2022-12-29T06:36:42;2.20;;;1.70;;
6376;SDS011;3221;48.858;10.128;2022-12-29T06:39:10;2.03;;;1.70;;
6376;SDS011;3221;48.858;10.128;2022-12-29T06:41:37;3.20;;;1.87;;
6376;SDS011;3221;48.858;10.128;2022-12-29T06:44:30;3.33;;;1.80;;
6376;SDS011;3221;48.858;10.128;2022-12-29T06:47:00;2.50;;;1.63;;
6376;SDS011;3221;48.858;10.128;2022-12-29T06:49:27;1.60;;;1.50;;
6376;SDS011;3221;48.858;10.128;2022-12-29T06:51:54;3.53;;;1.80;;
6376;SDS011;3221;48.858;10.128;2022-12-29T06:54:20;1.70;;;1.60;;
6376;SDS011;3221;48.858;10.128;2022-12-29T06:56:47;1.50;;;1.40;;
6376;SDS011;3221;48.858;10.128;2022-12-29T06:59:14;2.63;;;1.70;;
6376;SDS011;3221;48.858;10.128;2022-12-29T07:01:42;3.93;;;2.00;;
6376;SDS011;3221;48.858;10.128;2022-12-29T07:04:09;2.13;;;1.50;;
6376;SDS011;3221;48.858;10.128;2022-12-29T07:06:36;2.10;;;1.87;;
6376;SDS011;3221;48.858;10.128;2022-12-29T07:09:03;2.63;;;2.00;;
6376;SDS011;3221;48.858;10.128;2022-12-29T07:11:30;1.97;;;1.70;;
6376;SDS011;3221;48.858;10.128;2022-12-29T07:13:57;3.07;;;2.10;;
6376;SDS011;3221;48.858;10.128;2022-12-29T07:16:27;2.50;;;1.67;;
6376;SDS011;3221;48.858;10.128;2022-12-29T07:18:56;2.20;;;1.80;;
6376;SDS011;3221;48.858;10.128;2022-12-29T07:21:23;1.90;;;1.77;;
6376;SDS011;3221;48.858;10.128;2022-12-29T07:23:50;2.80;;;1.80;;
6376;SDS011;3221;48.858;10.128;2022-12-29T07:26:16;2.17;;;1.70;;
6376;SDS011;3221;48.858;10.128;2022-12-29T07:28:44;2.60;;;1.80;;
6376;SDS011;3221;48.858;10.128;2022-12-29T07:31:15;2.57;;;1.80;;
6376;SDS011;3221;48.858;10.128;2022-12-29T07:33:46;3.10;;;2.00;;
6376;SDS011;3221;48.858;10.128;2022-12-29T07:36:14;5.07;;;2.20;;
6376;SDS011;3221;48.858;10.128;2022-12-29T07:38:42;6.10;;;1.80;;
6376;SDS011;3221;48.858;10.128;2022-12-29T07:41:10;2.33;;;1.50;;
6376;SDS011;3221;48.858;10.128;2022-12-29T07:43:37;3.47;;;1.80;;
6376;SDS011;3221;48.858;10.128;2022-12-29T07:46:42;3.70;;;2.07;;
6376;SDS011;3221;48.858;10.128;2022-12-29T07:49:22;2.70;;;1.80;;
6376;SDS011;3221;48.858;10.128;2022-12-29T07:51:49;3.67;;;1.93;;
6376;SDS011;3221;48.858;10.128;2022-12-29T07:54:16;2.20;;;1.70;;
6376;SDS011;3221;48.858;10.128;2022-12-29T07:56:44;2.17;;;1.97;;
6376;SDS011;3221;48.858;10.128;2022-12-29T07:59:12;4.27;;;1.90;;
6376;SDS011;3221;48.858;10.128;2022-12-29T08:01:38;2.70;;;2.00;;
6376;SDS011;3221;48.858;10.128;2022-12-29T08:04:06;2.10;;;1.80;;
6376;SDS011;3221;48.858;10.128;2022-12-29T08:06:33;3.23;;;1.80;;
6376;SDS011;3221;48.858;10.128;2022-12-29T08:09:00;2.30;;;1.80;;
6376;SDS011;3221;48.858;10.128;2022-12-29T08:11:37;2.47;;;2.00;;
6376;SDS011;3221;48.858;10.128;2022-12-29T08:14:04;3.60;;;2.00;;
6376;SDS011;3221;48.858;10.128;2022-12-29T08:16:31;3.20;;;2.03;;
6376;SDS011;3221;48.858;10.128;2022-12-29T08:18:58;2.03;;;1.87;;
6376;SDS011;3221;48.858;10.128;2022-12-29T08:21:27;2.20;;;1.60;;
6376;SDS011;3221;48.858;10.128;2022-12-29T08:23:54;2.07;;;1.87;;
6376;SDS011;3221;48.858;10.128;2022-12-29T08:26:21;2.20;;;1.97;;
6376;SDS011;3221;48.858;10.128;2022-12-29T08:28:50;2.93;;;1.77;;
6376;SDS011;3221;48.858;10.128;2022-12-29T08:31:19;2.37;;;1.77;;
6376;SDS011;3221;48.858;10.128;2022-12-29T08:33:46;2.27;;;1.83;;
6376;SDS011;3221;48.858;10.128;2022-12-29T08:36:13;3.13;;;1.87;;
6376;SDS011;3221;48.858;10.128;2022-12-29T08:38:40;3.10;;;2.00;;
6376;SDS011;3221;48.858;10.128;2022-12-29T08:41:07;2.63;;;2.10;;
6376;SDS011;3221;48.858;10.128;2022-12-29T08:43:34;3.10;;;1.87;;
6376;SDS011;3221;48.858;10.128;2022-12-29T08:46:01;5.17;;;1.67;;
6376;SDS011;3221;48.858;10.128;2022-12-29T08:48:28;2.23;;;1.93;;
6376;SDS011;3221;48.858;10.128;2022-12-29T08:50:55;4.43;;;1.97;;
6376;SDS011;3221;48.858;10.128;2022-12-29T08:53:22;3.30;;;1.90;;
6376;SDS011;3221;48.858;10.128;2022-12-29T08:55:54;2.53;;;2.20;;
6376;SDS011;3221;48.858;10.128;2022-12-29T08:58:33;2.40;;;1.90;;
6376;SDS011;3221;48.858;10.128;2022-12-29T09:01:00;2.30;;;2.07;;
6376;SDS011;3221;48.858;10.128;2022-12-29T09:03:27;2.37;;;1.80;;
6376;SDS011;3221;48.858;10.128;2022-12-29T09:06:15;4.17;;;1.97;;
6376;SDS011;3221;48.858;10.128;2022-12-29T09:08:43;2.97;;;2.10;;
6376;SDS011;3221;48.858;10.128;2022-12-29T09:11:15;2.20;;;2.00;;
6376;SDS011;3221;48.858;10.128;2022-12-29T09:13:46;3.37;;;2.10;;
6376;SDS011;3221;48.858;10.128;2022-12-29T09:16:14;3.83;;;2.10;;
6376;SDS011;3221;48.858;10.128;2022-12-29T09:18:41;2.63;;;2.10;;
6376;SDS011;3221;48.858;10.128;2022-12-29T09:21:09;3.37;;;2.30;;
6376;SDS011;3221;48.858;10.128;2022-12-29T09:23:38;3.90;;;2.17;;
6376;SDS011;3221;48.858;10.128;2022-12-29T09:26:05;3.20;;;2.20;;
6376;SDS011;3221;48.858;10.128;2022-12-29T09:28:33;3.40;;;2.40;;
6376;SDS011;3221;48.858;10.128;2022-12-29T09:31:01;6.13;;;2.77;;
6376;SDS011;3221;48.858;10.128;2022-12-29T09:33:28;3.60;;;2.10;;
6376;SDS011;3221;48.858;10.128;2022-12-29T09:35:56;3.57;;;2.30;;
6376;SDS011;3221;48.858;10.128;2022-12-29T09:38:24;3.93;;;2.47;;
6376;SDS011;3221;48.858;10.128;2022-12-29T09:40:56;6.43;;;2.60;;
6376;SDS011;3221;48.858;10.128;2022-12-29T09:46:25;3.80;;;2.50;;
6376;SDS011;3221;48.858;10.128;2022-12-29T09:51:53;2.80;;;2.40;;
6376;SDS011;3221;48.858;10.128;2022-12-29T09:54:27;3.93;;;2.20;;
6376;SDS011;3221;48.858;10.128;2022-12-29T09:57:34;3.67;;;2.50;;
6376;SDS011;3221;48.858;10.128;2022-12-29T10:00:08;3.23;;;2.30;;
6376;SDS011;3221;48.858;10.128;2022-12-29T10:02:50;5.73;;;2.20;;
6376;SDS011;3221;48.858;10.128;2022-12-29T10:05:35;2.87;;;2.43;;
6376;SDS011;3221;48.858;10.128;2022-12-29T10:08:22;2.97;;;2.10;;
6376;SDS011;3221;48.858;10.128;2022-12-29T10:10:59;6.13;;;2.50;;
6376;SDS011;3221;48.858;10.128;2022-12-29T10:13:54;5.17;;;2.47;;
6376;SDS011;3221;48.858;10.128;2022-12-29T10:25:16;7.10;;;2.67;;
6376;SDS011;3221;48.858;10.128;2022-12-29T10:27:49;2.63;;;2.40;;
6376;SDS011;3221;48.858;10.128;2022-12-29T10:30:18;4.17;;;2.80;;
6376;SDS011;3221;48.858;10.128;2022-12-29T10:32:49;3.70;;;2.37;;
6376;SDS011;3221;48.858;10.128;2022-12-29T10:35:25;2.90;;;2.40;;
6376;SDS011;3221;48.858;10.128;2022-12-29T10:40:42;3.60;;;2.57;;
6376;SDS011;3221;48.858;10.128;2022-12-29T10:43:20;3.10;;;2.37;;
6376;SDS011;3221;48.858;10.128;2022-12-29T10:46:02;3.77;;;2.20;;
6376;SDS011;3221;48.858;10.128;2022-12-29T10:48:32;3.33;;;2.50;;
6376;SDS011;3221;48.858;10.128;2022-12-29T10:51:02;3.13;;;2.50;;
6376;SDS011;3221;48.858;10.128;2022-12-29T10:53:38;3.37;;;2.17;;
6376;SDS011;3221;48.858;10.128;2022-12-29T10:56:30;3.63;;;2.27;;
6376;SDS011;3221;48.858;10.128;2022-12-29T10:59:07;5.27;;;2.60;;
6376;SDS011;3221;48.858;10.128;2022-12-29T11:01:52;4.97;;;2.60;;
6376;SDS011;3221;48.858;10.128;2022-12-29T11:07:23;2.97;;;2.53;;
6376;SDS011;3221;48.858;10.128;2022-12-29T11:09:53;4.37;;;2.37;;
6376;SDS011;3221;48.858;10.128;2022-12-29T11:12:28;2.77;;;2.33;;
6376;SDS011;3221;48.858;10.128;2022-12-29T11:17:50;4.97;;;2.30;;
6376;SDS011;3221;48.858;10.128;2022-12-29T11:20:26;3.80;;;2.13;;
6376;SDS011;3221;48.858;10.128;2022-12-29T11:22:54;3.87;;;2.50;;
6376;SDS011;3221;48.858;10.128;2022-12-29T11:25:21;4.27;;;2.30;;
6376;SDS011;3221;48.858;10.128;2022-12-29T11:28:13;5.13;;;2.40;;
6376;SDS011;3221;48.858;10.128;2022-12-29T11:30:42;2.60;;;2.33;;
6376;SDS011;3221;48.858;10.128;2022-12-29T11:33:10;4.03;;;2.50;;
6376;SDS011;3221;48.858;10.128;2022-12-29T11:38:21;3.23;;;2.37;;
6376;SDS011;3221;48.858;10.128;2022-12-29T11:40:51;7.20;;;2.67;;
6376;SDS011;3221;48.858;10.128;2022-12-29T11:46:00;2.37;;;2.10;;
6376;SDS011;3221;48.858;10.128;2022-12-29T11:48:40;2.50;;;2.20;;
6376;SDS011;3221;48.858;10.128;2022-12-29T11:51:08;3.57;;;2.00;;
6376;SDS011;3221;48.858;10.128;2022-12-29T11:53:44;5.50;;;2.40;;
6376;SDS011;3221;48.858;10.128;2022-12-29T11:56:14;2.33;;;1.97;;
6376;SDS011;3221;48.858;10.128;2022-12-29T11:58:43;2.90;;;2.00;;
6376;SDS011;3221;48.858;10.128;2022-12-29T12:01:20;2.47;;;2.10;;
6376;SDS011;3221;48.858;10.128;2022-12-29T12:06:28;4.00;;;2.13;;
6376;SDS011;3221;48.858;10.128;2022-12-29T12:09:06;2.93;;;2.10;;
6376;SDS011;3221;48.858;10.128;2022-12-29T12:11:40;2.70;;;2.20;;
6376;SDS011;3221;48.858;10.128;2022-12-29T12:14:13;3.43;;;2.10;;
6376;SDS011;3221;48.858;10.128;2022-12-29T12:17:18;3.73;;;1.90;;
6376;SDS011;3221;48.858;10.128;2022-12-29T12:20:00;2.57;;;1.97;;
6376;SDS011;3221;48.858;10.128;2022-12-29T12:23:06;4.40;;;2.10;;
6376;SDS011;3221;48.858;10.128;2022-12-29T12:25:48;2.30;;;2.10;;
6376;SDS011;3221;48.858;10.128;2022-12-29T12:29:10;3.43;;;2.77;;
6376;SDS011;3221;48.858;10.128;2022-12-29T12:31:45;2.70;;;1.90;;
6376;SDS011;3221;48.858;10.128;2022-12-29T12:42:27;2.47;;;1.90;;
6376;SDS011;3221;48.858;10.128;2022-12-29T12:54:05;2.73;;;1.90;;
6376;SDS011;3221;48.858;10.128;2022-12-29T13:00:01;4.83;;;2.47;;
6376;SDS011;3221;48.858;10.128;2022-12-29T13:05:25;6.87;;;3.10;;
6376;SDS011;3221;48.858;10.128;2022-12-29T13:08:05;11.10;;;5.57;;
6376;SDS011;3221;48.858;10.128;2022-12-29T13:11:10;9.47;;;4.63;;
6376;SDS011;3221;48.858;10.128;2022-12-29T13:16:23;6.27;;;3.83;;
6376;SDS011;3221;48.858;10.128;2022-12-29T13:19:05;6.73;;;3.63;;
6376;SDS011;3221;48.858;10.128;2022-12-29T13:24:34;13.80;;;5.63;;
6376;SDS011;3221;48.858;10.128;2022-12-29T13:27:09;9.37;;;4.67;;
6376;SDS011;3221;48.858;10.128;2022-12-29T13:35:55;16.13;;;6.90;;
6376;SDS011;3221;48.858;10.128;2022-12-29T13:38:43;19.40;;;7.70;;
6376;SDS011;3221;48.858;10.128;2022-12-29T13:41:25;16.93;;;6.80;;
6376;SDS011;3221;48.858;10.128;2022-12-29T13:43:57;18.47;;;8.03;;
6376;SDS011;3221;48.858;10.128;2022-12-29T13:46:28;14.30;;;6.70;;
6376;SDS011;3221;48.858;10.128;2022-12-29T13:49:33;10.80;;;4.80;;
6376;SDS011;3221;48.858;10.128;2022-12-29T13:51:54;10.07;;;4.53;;
6376;SDS011;3221;48.858;10.128;2022-12-29T13:57:23;10.10;;;4.43;;
6376;SDS011;3221;48.858;10.128;2022-12-29T14:00:32;12.30;;;5.83;;
6376;SDS011;3221;48.858;10.128;2022-12-29T14:08:52;7.70;;;4.33;;
6376;SDS011;3221;48.858;10.128;2022-12-29T14:11:21;10.10;;;5.50;;
6376;SDS011;3221;48.858;10.128;2022-12-29T14:13:54;9.13;;;5.33;;
6376;SDS011;3221;48.858;10.128;2022-12-29T14:16:26;15.10;;;7.97;;
6376;SDS011;3221;48.858;10.128;2022-12-29T14:18:57;13.13;;;7.37;;
6376;SDS011;3221;48.858;10.128;2022-12-29T14:21:54;7.90;;;5.00;;
6376;SDS011;3221;48.858;10.128;2022-12-29T14:27:04;5.80;;;3.20;;
6376;SDS011;3221;48.858;10.128;2022-12-29T14:29:48;5.23;;;2.93;;
6376;SDS011;3221;48.858;10.128;2022-12-29T14:34:53;4.53;;;3.00;;
6376;SDS011;3221;48.858;10.128;2022-12-29T14:42:47;5.27;;;2.80;;
6376;SDS011;3221;48.858;10.128;2022-12-29T14:47:48;5.27;;;3.23;;
6376;SDS011;3221;48.858;10.128;2022-12-29T14:50:17;5.20;;;3.70;;
6376;SDS011;3221;48.858;10.128;2022-12-29T14:52:52;3.53;;;2.70;;
6376;SDS011;3221;48.858;10.128;2022-12-29T14:55:36;5.97;;;3.10;;
6376;SDS011;3221;48.858;10.128;2022-12-29T14:58:07;3.73;;;2.90;;
6376;SDS011;3221;48.858;10.128;2022-12-29T15:00:42;4.70;;;2.63;;
6376;SDS011;3221;48.858;10.128;2022-12-29T15:03:18;3.67;;;2.87;;
6376;SDS011;3221;48.858;10.128;2022-12-29T15:05:50;3.67;;;2.90;;
6376;SDS011;3221;48.858;10.128;2022-12-29T15:08:20;3.37;;;2.33;;
6376;SDS011;3221;48.858;10.128;2022-12-29T15:11:00;3.10;;;2.30;;
6376;SDS011;3221;48.858;10.128;2022-12-29T15:13:38;3.00;;;2.53;;
6376;SDS011;3221;48.858;10.128;2022-12-29T15:16:21;4.93;;;2.60;;
6376;SDS011;3221;48.858;10.128;2022-12-29T15:18:51;5.60;;;4.27;;
6376;SDS011;3221;48.858;10.128;2022-12-29T15:21:32;7.80;;;4.80;;
6376;SDS011;3221;48.858;10.128;2022-12-29T15:24:02;11.27;;;6.10;;
6376;SDS011;3221;48.858;10.128;2022-12-29T15:26:36;6.87;;;4.60;;
6376;SDS011;3221;48.858;10.128;2022-12-29T15:29:26;7.43;;;4.67;;
6376;SDS011;3221;48.858;10.128;2022-12-29T15:31:59;5.93;;;4.47;;
6376;SDS011;3221;48.858;10.128;2022-12-29T15:34:30;8.97;;;6.10;;
6376;SDS011;3221;48.858;10.128;2022-12-29T15:36:57;7.20;;;4.73;;
6376;SDS011;3221;48.858;10.128;2022-12-29T15:39:29;6.60;;;4.93;;
6376;SDS011;3221;48.858;10.128;2022-12-29T15:42:09;5.60;;;4.47;;
6376;SDS011;3221;48.858;10.128;2022-12-29T15:44:49;5.80;;;3.93;;
6376;SDS011;3221;48.858;10.128;2022-12-29T15:47:29;6.23;;;3.70;;
6376;SDS011;3221;48.858;10.128;2022-12-29T15:50:08;6.17;;;3.63;;
6376;SDS011;3221;48.858;10.128;2022-12-29T15:52:48;3.83;;;2.50;;
6376;SDS011;3221;48.858;10.128;2022-12-29T15:55:20;3.93;;;2.47;;
6376;SDS011;3221;48.858;10.128;2022-12-29T15:58:18;4.63;;;2.63;;
6376;SDS011;3221;48.858;10.128;2022-12-29T16:00:54;3.03;;;2.00;;
6376;SDS011;3221;48.858;10.128;2022-12-29T16:03:24;3.67;;;2.47;;
6376;SDS011;3221;48.858;10.128;2022-12-29T16:05:55;2.27;;;2.00;;
6376;SDS011;3221;48.858;10.128;2022-12-29T16:11:07;2.50;;;2.27;;
6376;SDS011;3221;48.858;10.128;2022-12-29T16:13:50;2.30;;;2.10;;
6376;SDS011;3221;48.858;10.128;2022-12-29T16:16:20;3.53;;;2.07;;
6376;SDS011;3221;48.858;10.128;2022-12-29T16:18:57;2.17;;;2.00;;
6376;SDS011;3221;48.858;10.128;2022-12-29T16:24:04;2.27;;;2.00;;
6376;SDS011;3221;48.858;10.128;2022-12-29T16:26:35;2.20;;;2.00;;
6376;SDS011;3221;48.858;10.128;2022-12-29T16:29:04;3.73;;;2.37;;
6376;SDS011;3221;48.858;10.128;2022-12-29T16:34:24;4.77;;;3.37;;
6376;SDS011;3221;48.858;10.128;2022-12-29T16:37:05;3.80;;;3.10;;
6376;SDS011;3221;48.858;10.128;2022-12-29T16:39:47;6.23;;;2.93;;
6376;SDS011;3221;48.858;10.128;2022-12-29T16:50:46;4.87;;;2.93;;
6376;SDS011;3221;48.858;10.128;2022-12-29T16:55:51;7.13;;;3.63;;
6376;SDS011;3221;48.858;10.128;2022-12-29T16:58:26;5.70;;;3.73;;
6376;SDS011;3221;48.858;10.128;2022-12-29T17:00:55;4.83;;;3.00;;
6376;SDS011;3221;48.858;10.128;2022-12-29T17:03:24;5.03;;;2.50;;
6376;SDS011;3221;48.858;10.128;2022-12-29T17:05:59;3.60;;;1.90;;
6376;SDS011;3221;48.858;10.128;2022-12-29T17:08:28;4.13;;;2.10;;
6376;SDS011;3221;48.858;10.128;2022-12-29T17:10:55;3.07;;;2.30;;
6376;SDS011;3221;48.858;10.128;2022-12-29T17:13:49;3.40;;;2.27;;
6376;SDS011;3221;48.858;10.128;2022-12-29T17:16:16;3.07;;;2.10;;
6376;SDS011;3221;48.858;10.128;2022-12-29T17:18:43;3.57;;;2.80;;
6376;SDS011;3221;48.858;10.128;2022-12-29T17:21:09;4.43;;;2.70;;
6376;SDS011;3221;48.858;10.128;2022-12-29T17:23:36;3.70;;;2.70;;
6376;SDS011;3221;48.858;10.128;2022-12-29T17:26:03;2.70;;;2.30;;
6376;SDS011;3221;48.858;10.128;2022-12-29T17:28:38;4.87;;;2.70;;
6376;SDS011;3221;48.858;10.128;2022-12-29T17:31:05;3.10;;;2.20;;
6376;SDS011;3221;48.858;10.128;2022-12-29T17:33:35;3.27;;;2.60;;
6376;SDS011;3221;48.858;10.128;2022-12-29T17:36:04;3.00;;;2.40;;
6376;SDS011;3221;48.858;10.128;2022-12-29T17:38:33;2.50;;;2.17;;
6376;SDS011;3221;48.858;10.128;2022-12-29T17:41:01;4.57;;;2.47;;
6376;SDS011;3221;48.858;10.128;2022-12-29T17:43:28;4.40;;;2.97;;
6376;SDS011;3221;48.858;10.128;2022-12-29T17:46:02;4.67;;;3.30;;
6376;SDS011;3221;48.858;10.128;2022-12-29T17:48:32;29.23;;;12.47;;
6376;SDS011;3221;48.858;10.128;2022-12-29T17:50:59;22.40;;;10.00;;
6376;SDS011;3221;48.858;10.128;2022-12-29T17:53:27;31.53;;;14.43;;
6376;SDS011;3221;48.858;10.128;2022-12-29T17:55:55;30.13;;;13.50;;
6376;SDS011;3221;48.858;10.128;2022-12-29T17:58:23;21.87;;;9.83;;
6376;SDS011;3221;48.858;10.128;2022-12-29T18:00:53;21.57;;;10.33;;
6376;SDS011;3221;48.858;10.128;2022-12-29T18:03:24;24.03;;;11.63;;
6376;SDS011;3221;48.858;10.128;2022-12-29T18:05:57;26.60;;;12.77;;
6376;SDS011;3221;48.858;10.128;2022-12-29T18:08:24;23.20;;;11.73;;